Terminal Aerodrome Forecast
Issued by NWS

Home | Current Version | Previous Version | Text Only | Print | Product List | Glossary On
Versions: 1 2 3 4 5 6 7 8 9 10 11 12 13 14 15 16 17 18 19
134
FTUS41 KBGM 261135
TAFITH
TAF
KITH 261135Z 2612/2712 14007KT P6SM BKN200
     FM261500 16010G17KT P6SM BKN150
     FM270000 17014KT 5SM -SHRA OVC035
     FM270200 18012KT 3SM -SHRA OVC018
     FM270500 21007KT P6SM BKN025
     FM270700 21006KT P6SM BKN040=

USA.gov is the U.S. government's official web portal to all federal, state and local government web resources and services.